createdAt,value
2018-12-11T00:00:35.120Z,80.97
2018-12-11T00:03:42.699Z,80.86
2018-12-11T00:07:00.258Z,81.32
2018-12-11T00:10:17.948Z,81.68
2018-12-11T00:13:35.392Z,81.32
2018-12-11T00:16:52.901Z,81.43
2018-12-11T00:20:00.842Z,81.33
2018-12-11T00:23:08.537Z,81.15
2018-12-11T00:26:16.104Z,81.39
2018-12-11T00:29:33.668Z,81.25
2018-12-11T00:32:41.568Z,80.98
2018-12-11T00:35:49.139Z,81.61
2018-12-11T00:39:08.308Z,81.87
2018-12-11T00:42:15.872Z,81.31
2018-12-11T00:45:33.487Z,81.41
2018-12-11T00:48:41.561Z,81.28
2018-12-11T00:51:49.564Z,81.35
2018-12-11T00:55:07.784Z,82.04
2018-12-11T00:58:15.340Z,81.90
2018-12-11T01:01:22.927Z,81.35
2018-12-11T01:04:40.378Z,80.76
2018-12-11T01:07:58.340Z,80.66
2018-12-11T01:11:05.889Z,80.37
2018-12-11T01:14:13.396Z,80.48
2018-12-11T01:17:20.845Z,80.11
2018-12-11T01:20:28.495Z,79.34
2018-12-11T01:23:35.955Z,80.07
2018-12-11T01:26:43.468Z,79.94
2018-12-11T01:29:51.095Z,79.30
2018-12-11T01:32:58.560Z,79.57
2018-12-11T01:36:16.096Z,79.96
2018-12-11T01:39:50.653Z,80.23
2018-12-11T01:43:08.326Z,80.66
2018-12-11T01:46:26.117Z,80.18
2018-12-11T01:49:44.271Z,80.65
2018-12-11T01:52:51.764Z,80.64
2018-12-11T01:55:59.602Z,80.91
2018-12-11T01:59:07.865Z,81.36
2018-12-11T02:02:15.383Z,81.40
2018-12-11T02:05:22.924Z,81.71
2018-12-11T02:08:40.830Z,81.65
2018-12-11T02:11:58.744Z,81.38
2018-12-11T02:15:16.379Z,81.81
2018-12-11T02:18:34.254Z,81.92
2018-12-11T02:21:52.056Z,81.80
2018-12-11T02:25:10.261Z,81.40
2018-12-11T02:28:17.802Z,82.12
2018-12-11T02:31:25.444Z,82.68
2018-12-11T02:34:32.924Z,82.71
2018-12-11T02:37:50.736Z,82.75
2018-12-11T02:41:08.604Z,82.74
2018-12-11T02:44:16.095Z,82.78
2018-12-11T02:47:23.675Z,83.45
2018-12-11T02:50:32.262Z,82.88
2018-12-11T02:53:39.791Z,83.01
2018-12-11T02:56:47.323Z,83.11
2018-12-11T02:59:55.015Z,82.96
2018-12-11T03:03:03.028Z,83.33
2018-12-11T03:06:10.534Z,83.06
2018-12-11T03:09:18.404Z,83.03
2018-12-11T03:12:26.570Z,83.67
2018-12-11T03:15:34.750Z,83.40
2018-12-11T03:18:43.760Z,83.74
2018-12-11T03:21:51.484Z,84.11
2018-12-11T03:25:09.431Z,83.61
2018-12-11T03:28:27.243Z,84.26
2018-12-11T03:31:45.043Z,83.83
2018-12-11T03:38:08.408Z,83.91
2018-12-11T03:41:15.956Z,83.63
2018-12-11T03:44:23.401Z,83.75
2018-12-11T03:47:30.880Z,83.58
2018-12-11T03:50:38.385Z,83.17
2018-12-11T03:53:57.707Z,83.59
2018-12-11T03:57:15.492Z,83.36
2018-12-11T04:00:33.732Z,83.41
2018-12-11T04:03:41.237Z,83.74
2018-12-11T04:06:48.728Z,83.25
2018-12-11T04:09:56.238Z,83.31
2018-12-11T04:13:03.699Z,83.96
2018-12-11T04:16:21.892Z,83.62
2018-12-11T04:19:29.661Z,83.68
2018-12-11T04:22:37.476Z,83.44
2018-12-11T04:25:55.613Z,84.09
2018-12-11T04:29:04.683Z,83.63
2018-12-11T04:32:12.239Z,83.12
2018-12-11T04:35:19.755Z,83.21
2018-12-11T04:38:27.324Z,83.59
2018-12-11T04:41:44.764Z,83.41
2018-12-11T04:44:52.233Z,83.59
2018-12-11T04:48:00.147Z,83.72
2018-12-11T04:51:07.693Z,83.09
2018-12-11T04:54:25.443Z,82.85
2018-12-11T04:57:43.559Z,83.00
2018-12-11T05:00:51.071Z,82.94
2018-12-11T05:03:58.571Z,82.56
2018-12-11T05:07:06.565Z,82.98
2018-12-11T05:10:14.101Z,82.80
2018-12-11T05:13:21.564Z,83.11
2018-12-11T05:16:29.048Z,82.88
2018-12-11T05:19:37.097Z,82.92
2018-12-11T05:22:44.538Z,82.87
2018-12-11T05:25:52.202Z,82.33
2018-12-11T05:28:59.664Z,82.16
2018-12-11T05:32:07.451Z,82.43
2018-12-11T05:35:15.536Z,82.78
2018-12-11T05:38:23.079Z,82.26
2018-12-11T05:41:41.787Z,82.50
2018-12-11T05:44:49.264Z,82.17
2018-12-11T05:47:56.707Z,81.99
2018-12-11T05:51:04.179Z,82.28
2018-12-11T05:54:21.907Z,82.28
2018-12-11T05:57:39.655Z,82.03
2018-12-11T06:00:57.477Z,82.34
2018-12-11T06:04:15.666Z,82.23
2018-12-11T06:07:23.264Z,82.08
2018-12-11T06:10:31.347Z,82.13
2018-12-11T06:13:48.484Z,81.82
2018-12-11T06:17:06.224Z,81.68
2018-12-11T06:20:24.122Z,81.29
2018-12-11T06:23:41.791Z,81.37
2018-12-11T06:27:01.096Z,81.09
2018-12-11T06:30:19.267Z,81.10
2018-12-11T06:33:36.964Z,81.64
2018-12-11T06:36:55.134Z,80.68
2018-12-11T06:40:02.751Z,80.92
2018-12-11T06:43:10.315Z,81.01
2018-12-11T06:46:17.775Z,81.07
2018-12-11T06:49:36.081Z,80.84
2018-12-11T06:52:53.809Z,80.59
2018-12-11T06:56:10.959Z,79.62
2018-12-11T06:59:28.796Z,79.73
2018-12-11T07:02:46.507Z,79.28
2018-12-11T07:06:04.294Z,79.64
2018-12-11T07:09:22.088Z,79.60
2018-12-11T07:12:41.368Z,79.73
2018-12-11T07:15:59.092Z,79.28
2018-12-11T07:19:17.019Z,79.23
2018-12-11T07:22:34.620Z,78.72
2018-12-11T07:25:52.592Z,79.01
2018-12-11T07:29:00.032Z,79.72
2018-12-11T07:32:07.530Z,79.31
2018-12-11T07:35:14.980Z,79.95
2018-12-11T07:38:22.490Z,80.03
2018-12-11T07:44:45.998Z,79.17
2018-12-11T07:48:04.195Z,78.43
2018-12-11T07:51:11.840Z,77.89
2018-12-11T07:54:19.850Z,78.09
2018-12-11T07:57:37.893Z,77.88
2018-12-11T08:00:45.499Z,78.07
2018-12-11T08:03:53.028Z,78.64
2018-12-11T08:07:00.508Z,78.76
2018-12-11T08:13:24.329Z,78.42
2018-12-11T08:16:42.724Z,78.33
2018-12-11T08:19:50.268Z,78.30
2018-12-11T08:22:57.831Z,77.83
2018-12-11T08:26:05.733Z,77.98
2018-12-11T08:29:13.270Z,77.07
2018-12-11T08:32:21.247Z,78.47
2018-12-11T08:35:38.711Z,77.32
2018-12-11T08:38:55.879Z,77.85
2018-12-11T08:42:15.172Z,77.75
2018-12-11T08:45:32.415Z,76.85
2018-12-11T08:48:49.709Z,76.86
2018-12-11T08:52:06.964Z,76.49
2018-12-11T08:55:24.236Z,76.34
2018-12-11T08:58:41.529Z,75.71
2018-12-11T09:01:58.833Z,74.87
2018-12-11T09:05:16.054Z,74.34
2018-12-11T09:08:33.555Z,73.83
2018-12-11T09:11:41.388Z,74.43
2018-12-11T09:14:48.829Z,74.45
2018-12-11T09:17:56.296Z,74.18
2018-12-11T09:21:03.780Z,73.93
2018-12-11T09:24:21.616Z,73.14
2018-12-11T09:27:39.321Z,72.68
2018-12-11T09:30:56.589Z,71.83
2018-12-11T09:34:14.632Z,67.51
2018-12-11T09:40:38.424Z,66.98
2018-12-11T09:43:47.036Z,66.59
2018-12-11T09:47:04.868Z,67.14
2018-12-11T09:50:13.275Z,67.00
2018-12-11T09:53:20.800Z,66.71
2018-12-11T09:56:38.544Z,65.87
2018-12-11T09:59:55.725Z,64.91
2018-12-11T10:03:13.408Z,63.69
2018-12-11T10:06:20.907Z,63.58
2018-12-11T10:09:28.416Z,63.23
2018-12-11T10:12:35.899Z,61.73
2018-12-11T10:18:59.407Z,62.99
2018-12-11T10:22:17.223Z,61.93
2018-12-11T10:25:34.907Z,60.44
2018-12-11T10:28:52.732Z,59.04
2018-12-11T10:32:16.488Z,58.58
2018-12-11T10:35:34.260Z,59.70
2018-12-11T10:38:52.029Z,59.59
2018-12-11T10:42:09.818Z,59.98
2018-12-11T10:45:27.573Z,61.12
2018-12-11T10:48:45.348Z,60.80
2018-12-11T10:52:03.120Z,62.18
2018-12-11T10:55:20.932Z,62.95
2018-12-11T10:58:38.775Z,61.58
2018-12-11T11:01:58.544Z,62.27
2018-12-11T11:05:07.015Z,62.34
2018-12-11T11:08:24.345Z,62.91
2018-12-11T11:11:42.069Z,64.05
2018-12-11T11:14:49.877Z,63.14
2018-12-11T11:17:57.320Z,62.57
2018-12-11T11:21:04.792Z,63.30
2018-12-11T11:24:22.025Z,62.82
2018-12-11T11:27:39.813Z,61.16
2018-12-11T11:30:47.292Z,61.15
2018-12-11T11:33:56.757Z,62.27
2018-12-11T11:37:14.152Z,61.98
2018-12-11T11:40:31.452Z,62.33
2018-12-11T11:43:48.828Z,62.73
2018-12-11T11:47:06.900Z,63.73
2018-12-11T11:50:17.096Z,64.04
2018-12-11T11:53:24.545Z,65.17
2018-12-11T11:56:32.007Z,64.93
2018-12-11T11:59:39.474Z,65.15
2018-12-11T12:02:56.852Z,65.03
2018-12-11T12:06:14.195Z,64.85
2018-12-11T12:09:31.464Z,64.83
2018-12-11T12:12:48.744Z,64.96
2018-12-11T12:16:06.019Z,65.19
2018-12-11T12:19:23.296Z,65.98
2018-12-11T12:22:40.622Z,65.87
2018-12-11T12:25:57.828Z,66.16
2018-12-11T12:29:15.099Z,65.84
2018-12-11T12:32:32.394Z,65.35
2018-12-11T12:35:49.647Z,66.09
2018-12-11T12:39:09.535Z,66.17
2018-12-11T12:42:17.011Z,66.33
2018-12-11T12:45:24.469Z,65.79
2018-12-11T12:48:41.805Z,66.22
2018-12-11T12:51:59.146Z,67.00
2018-12-11T12:55:16.384Z,67.15
2018-12-11T12:58:33.676Z,66.71
2018-12-11T13:01:50.900Z,67.31
2018-12-11T13:05:08.590Z,66.15
2018-12-11T13:08:16.039Z,66.65
2018-12-11T13:11:23.505Z,67.01
2018-12-11T13:14:30.968Z,67.35
2018-12-11T13:17:38.433Z,68.30
2018-12-11T13:20:56.400Z,67.60
2018-12-11T13:24:14.227Z,68.17
2018-12-11T13:27:31.960Z,67.73
2018-12-11T13:30:49.882Z,67.71
2018-12-11T13:34:07.642Z,67.85
2018-12-11T13:37:25.400Z,67.91
2018-12-11T13:40:43.969Z,68.01
2018-12-11T13:43:52.007Z,68.35
2018-12-11T13:47:09.913Z,67.54
2018-12-11T13:50:17.352Z,68.66
2018-12-11T13:53:25.101Z,69.25
2018-12-11T13:56:32.556Z,69.07
2018-12-11T13:59:49.735Z,69.19
2018-12-11T14:03:08.773Z,69.67
2018-12-11T14:06:26.351Z,69.17
2018-12-11T14:09:39.784Z,69.26
2018-12-11T14:12:47.251Z,69.50
2018-12-11T14:15:54.685Z,69.73
2018-12-11T14:19:02.189Z,69.59
2018-12-11T14:22:09.932Z,70.19
2018-12-11T14:25:28.065Z,70.22
2018-12-11T14:28:35.564Z,69.75
2018-12-11T14:35:02.075Z,70.24
2018-12-11T14:38:09.532Z,69.74
2018-12-11T14:41:17.135Z,69.69
2018-12-11T14:44:34.472Z,69.60
2018-12-11T14:47:51.769Z,69.48
2018-12-11T14:51:09.052Z,69.81
2018-12-11T14:54:26.441Z,69.88
2018-12-11T14:57:43.772Z,69.88
2018-12-11T15:01:01.076Z,70.36
2018-12-11T15:04:18.352Z,70.60
2018-12-11T15:07:36.392Z,71.31
2018-12-11T15:10:44.374Z,71.27
2018-12-11T15:14:02.025Z,70.99
2018-12-11T15:17:09.672Z,71.03
2018-12-11T15:20:17.227Z,70.87
2018-12-11T15:23:24.772Z,71.23
2018-12-11T15:26:32.200Z,71.81
2018-12-11T15:29:49.896Z,71.88
2018-12-11T15:32:57.344Z,72.13
2018-12-11T15:36:05.270Z,71.27
2018-12-11T15:39:12.739Z,71.81
2018-12-11T15:42:30.047Z,71.62
2018-12-11T15:45:47.182Z,72.14
2018-12-11T15:49:04.513Z,73.04
2018-12-11T15:52:21.711Z,72.49
2018-12-11T15:55:39.076Z,72.76
2018-12-11T15:58:56.341Z,72.54
2018-12-11T16:02:13.587Z,72.36
2018-12-11T16:05:30.853Z,72.20
2018-12-11T16:08:48.107Z,71.79
2018-12-11T16:12:06.376Z,72.71
2018-12-11T16:15:14.273Z,72.37
2018-12-11T16:18:31.451Z,71.98
2018-12-11T16:21:48.760Z,72.12
2018-12-11T16:25:07.465Z,72.37
2018-12-11T16:28:14.896Z,71.76
2018-12-11T16:31:32.192Z,72.63
2018-12-11T16:34:49.843Z,72.65
2018-12-11T16:37:57.730Z,72.89
2018-12-11T16:41:05.183Z,72.81
2018-12-11T16:44:12.729Z,73.60
2018-12-11T16:47:30.429Z,74.14
2018-12-11T16:50:39.051Z,74.78
2018-12-11T16:53:46.521Z,75.59
2018-12-11T16:56:54.043Z,74.89
2018-12-11T17:00:01.507Z,75.38
2018-12-11T17:03:09.142Z,75.35
2018-12-11T17:06:26.376Z,74.96
2018-12-11T17:09:44.057Z,76.00
2018-12-11T17:12:51.584Z,76.61
2018-12-11T17:15:59.124Z,75.25
2018-12-11T17:19:06.607Z,75.98
2018-12-11T17:22:14.103Z,76.12
2018-12-11T17:25:31.301Z,75.89
2018-12-11T17:28:48.589Z,75.99
2018-12-11T17:32:05.896Z,75.95
2018-12-11T17:35:32.280Z,74.95
2018-12-11T17:38:49.577Z,75.00
2018-12-11T17:42:09.536Z,75.81
2018-12-11T17:45:26.788Z,75.65
2018-12-11T17:48:41.455Z,75.49
2018-12-11T17:51:54.466Z,75.58
2018-12-11T17:55:11.732Z,75.17
2018-12-11T17:58:29.363Z,74.71
2018-12-11T18:01:38.096Z,75.28
2018-12-11T18:04:45.555Z,75.40
2018-12-11T18:07:53.044Z,75.40
2018-12-11T18:11:00.493Z,76.15
2018-12-11T18:14:08.012Z,76.45
2018-12-11T18:17:15.612Z,77.19
2018-12-11T18:20:23.061Z,77.78
2018-12-11T18:23:30.595Z,78.40
2018-12-11T18:26:38.040Z,78.00
2018-12-11T18:29:45.521Z,77.15
2018-12-11T18:32:53.104Z,76.97
2018-12-11T18:36:10.304Z,77.30
2018-12-11T18:39:27.608Z,77.48
2018-12-11T18:42:44.975Z,77.13
2018-12-11T18:46:02.129Z,76.94
2018-12-11T18:49:19.488Z,76.17
2018-12-11T18:52:36.735Z,76.32
2018-12-11T18:55:54.026Z,76.06
2018-12-11T18:59:11.432Z,76.84
2018-12-11T19:02:28.924Z,77.39
2018-12-11T19:05:36.516Z,76.90
2018-12-11T19:08:44.032Z,76.94
2018-12-11T19:11:51.804Z,76.72
2018-12-11T19:15:04.710Z,76.14
2018-12-11T19:18:09.159Z,76.78
2018-12-11T19:21:16.939Z,77.18
2018-12-11T19:24:45.998Z,77.14
2018-12-11T19:27:53.484Z,77.02
2018-12-11T19:31:10.668Z,76.60
2018-12-11T19:34:27.932Z,76.72
2018-12-11T19:37:45.225Z,77.49
2018-12-11T19:41:02.500Z,77.44
2018-12-11T19:44:19.813Z,77.83
2018-12-11T19:47:37.115Z,77.64
2018-12-11T19:50:54.403Z,77.80
2018-12-11T19:54:12.136Z,77.22
2018-12-11T19:57:19.591Z,77.82
2018-12-11T20:00:27.079Z,78.41
2018-12-11T20:03:34.560Z,78.13
2018-12-11T20:06:42.444Z,78.27
2018-12-11T20:09:55.031Z,78.40
2018-12-11T20:13:02.488Z,79.14
2018-12-11T20:16:09.956Z,79.71
2018-12-11T20:19:27.412Z,79.96
2018-12-11T20:22:45.068Z,81.08
2018-12-11T20:25:52.568Z,81.40
2018-12-11T20:29:00.039Z,81.32
2018-12-11T20:32:07.536Z,81.79
2018-12-11T20:35:15.038Z,81.52
2018-12-11T20:38:32.293Z,82.58
2018-12-11T20:41:49.613Z,83.33
2018-12-11T20:45:08.176Z,83.06
2018-12-11T20:48:15.677Z,83.43
2018-12-11T20:51:33.166Z,83.92
2018-12-11T20:54:50.485Z,84.04
2018-12-11T20:58:07.959Z,84.44
2018-12-11T21:01:25.120Z,85.49
2018-12-11T21:04:42.380Z,84.77
2018-12-11T21:07:59.716Z,84.22
2018-12-11T21:11:16.937Z,84.15
2018-12-11T21:14:34.772Z,83.81
2018-12-11T21:17:49.257Z,83.90
2018-12-11T21:20:57.148Z,84.31
2018-12-11T21:24:05.492Z,84.03
2018-12-11T21:27:22.733Z,83.98
2018-12-11T21:30:40.068Z,84.25
2018-12-11T21:33:57.889Z,84.31
2018-12-11T21:37:15.608Z,84.11
2018-12-11T21:40:33.524Z,84.78
2018-12-11T21:43:40.946Z,84.49
2018-12-11T21:46:48.964Z,85.01
2018-12-11T21:49:56.541Z,85.01
2018-12-11T21:53:14.496Z,84.59
2018-12-11T21:56:32.228Z,84.65
2018-12-11T21:59:50.174Z,85.43
2018-12-11T22:02:57.648Z,85.67
2018-12-11T22:06:05.584Z,85.34
2018-12-11T22:09:13.176Z,85.57
2018-12-11T22:12:31.268Z,85.55
2018-12-11T22:15:38.935Z,85.71
2018-12-11T22:18:46.415Z,84.90
2018-12-11T22:21:53.894Z,85.01
2018-12-11T22:25:01.836Z,85.03
2018-12-11T22:28:09.424Z,85.65
2018-12-11T22:31:17.054Z,85.89
2018-12-11T22:34:24.635Z,85.82
2018-12-11T22:37:42.460Z,85.87
2018-12-11T22:41:00.292Z,85.89
2018-12-11T22:44:17.948Z,86.05
2018-12-11T22:47:35.748Z,86.55
2018-12-11T22:50:54.156Z,86.36
2018-12-11T22:54:02.264Z,86.64
2018-12-11T22:57:20.157Z,86.62
2018-12-11T23:00:40.635Z,86.81
2018-12-11T23:03:48.108Z,86.15
2018-12-11T23:06:55.572Z,86.68
2018-12-11T23:10:13.839Z,87.09
2018-12-11T23:13:21.417Z,87.39
2018-12-11T23:16:29.404Z,87.25
2018-12-11T23:19:47.283Z,87.04
2018-12-11T23:22:54.756Z,86.92
2018-12-11T23:26:02.257Z,87.47
2018-12-11T23:29:09.880Z,87.46
2018-12-11T23:32:17.442Z,87.66
2018-12-11T23:35:35.638Z,87.68
2018-12-11T23:38:43.305Z,87.30
2018-12-11T23:41:50.884Z,86.50
2018-12-11T23:44:58.359Z,86.15
2018-12-11T23:48:16.315Z,86.90
2018-12-11T23:51:34.183Z,86.61
2018-12-11T23:54:51.964Z,86.02
2018-12-11T23:58:11.191Z,86.25
